createdAt,value
2023-03-21T00:01:31.854Z,8.80
2023-03-21T00:03:58.370Z,6.63
2023-03-21T00:06:25.069Z,6.20
2023-03-21T00:08:51.533Z,9.25
2023-03-21T00:11:18.038Z,6.57
2023-03-21T00:13:44.520Z,5.22
2023-03-21T00:16:17.416Z,3.70
2023-03-21T00:18:57.404Z,6.32
2023-03-21T00:24:21.021Z,4.47
2023-03-21T00:26:47.480Z,7.75
2023-03-21T00:29:13.864Z,6.60
2023-03-21T00:31:40.336Z,9.82
2023-03-21T00:34:06.781Z,9.63
2023-03-21T00:36:33.306Z,4.80
2023-03-21T00:39:01.017Z,7.30
2023-03-21T00:41:41.457Z,5.43
2023-03-21T00:44:09.909Z,7.28
2023-03-21T00:46:45.442Z,4.50
2023-03-21T00:49:15.671Z,7.47
2023-03-21T00:51:43.778Z,7.65
2023-03-21T00:54:11.810Z,4.50
2023-03-21T00:56:38.337Z,5.03
2023-03-21T00:59:04.677Z,9.20
2023-03-21T01:01:34.600Z,7.05
2023-03-21T01:04:07.420Z,11.85
2023-03-21T01:06:39.613Z,8.80
2023-03-21T01:09:17.117Z,6.10
2023-03-21T01:11:43.938Z,6.85
2023-03-21T01:14:22.049Z,9.80
2023-03-21T01:16:49.896Z,7.15
2023-03-21T01:19:25.154Z,5.82
2023-03-21T01:21:52.936Z,5.05
2023-03-21T01:24:19.522Z,5.05
2023-03-21T01:26:45.870Z,7.18
2023-03-21T01:29:12.275Z,6.32
2023-03-21T01:31:39.214Z,7.85
2023-03-21T01:34:05.719Z,5.78
2023-03-21T01:36:32.963Z,5.07
2023-03-21T01:38:59.612Z,6.20
2023-03-21T01:41:41.937Z,6.85
2023-03-21T01:44:14.398Z,4.57
2023-03-21T01:47:03.584Z,7.47
2023-03-21T01:49:34.518Z,7.50
2023-03-21T01:52:10.179Z,7.45
2023-03-21T01:54:39.915Z,9.07
2023-03-21T01:57:09.925Z,4.50
2023-03-21T01:59:38.137Z,4.63
2023-03-21T02:02:07.386Z,4.35
2023-03-21T02:04:35.570Z,6.75
2023-03-21T02:07:07.414Z,7.47
2023-03-21T02:09:35.300Z,5.95
2023-03-21T02:12:02.044Z,5.10
2023-03-21T02:14:30.452Z,4.97
2023-03-21T02:17:15.461Z,7.47
2023-03-21T02:19:53.903Z,5.95
2023-03-21T02:22:56.071Z,4.78
2023-03-21T02:25:37.138Z,4.72
2023-03-21T02:28:22.268Z,5.25
2023-03-21T02:30:52.148Z,6.18
2023-03-21T02:33:18.940Z,5.80
2023-03-21T02:36:13.558Z,4.88
2023-03-21T02:38:40.937Z,6.43
2023-03-21T02:41:19.488Z,5.20
2023-03-21T02:43:54.206Z,5.30
2023-03-21T02:46:24.261Z,4.05
2023-03-21T02:49:06.454Z,10.23
2023-03-21T02:51:33.541Z,6.28
2023-03-21T02:54:27.864Z,6.65
2023-03-21T02:56:53.598Z,4.60
2023-03-21T02:59:21.881Z,6.55
2023-03-21T03:01:50.144Z,12.32
2023-03-21T03:04:23.974Z,8.95
2023-03-21T03:07:01.117Z,10.18
2023-03-21T03:09:43.264Z,6.40
2023-03-21T03:12:16.474Z,9.02
2023-03-21T03:15:03.055Z,8.27
2023-03-21T03:17:47.298Z,9.63
2023-03-21T03:20:34.465Z,9.80
2023-03-21T03:23:16.849Z,10.68
2023-03-21T03:25:47.815Z,9.60
2023-03-21T03:28:15.616Z,13.23
2023-03-21T03:30:51.227Z,10.30
2023-03-21T03:33:23.623Z,8.30
2023-03-21T03:36:04.430Z,9.18
2023-03-21T03:38:33.752Z,7.22
2023-03-21T03:41:03.389Z,7.07
2023-03-21T03:43:35.335Z,7.22
2023-03-21T03:46:06.311Z,9.18
2023-03-21T03:48:35.212Z,7.25
2023-03-21T03:51:07.532Z,7.57
2023-03-21T03:53:39.149Z,6.72
2023-03-21T03:56:07.473Z,6.35
2023-03-21T03:58:44.967Z,6.65
2023-03-21T04:01:12.558Z,7.68
2023-03-21T04:03:48.818Z,7.93
2023-03-21T04:06:16.625Z,6.68
2023-03-21T04:08:43.307Z,6.78
2023-03-21T04:11:10.585Z,7.25
2023-03-21T04:13:37.352Z,7.50
2023-03-21T04:16:05.280Z,7.68
2023-03-21T04:18:32.328Z,5.90
2023-03-21T04:20:58.820Z,5.70
2023-03-21T04:23:25.235Z,6.05
2023-03-21T04:25:56.811Z,7.20
2023-03-21T04:28:23.622Z,9.55
2023-03-21T04:31:01.355Z,6.82
2023-03-21T04:33:31.458Z,6.25
2023-03-21T04:35:59.261Z,10.07
2023-03-21T04:38:30.566Z,8.18
2023-03-21T04:40:57.609Z,9.20
2023-03-21T04:43:24.103Z,7.95
2023-03-21T04:45:51.135Z,8.32
2023-03-21T04:48:19.637Z,7.25
2023-03-21T04:50:46.439Z,9.80
2023-03-21T04:53:13.121Z,9.07
2023-03-21T04:55:39.601Z,9.90
2023-03-21T04:58:06.376Z,13.10
2023-03-21T05:00:37.408Z,11.07
2023-03-21T05:03:09.337Z,9.43
2023-03-21T05:05:37.360Z,12.80
2023-03-21T05:08:03.977Z,11.70
2023-03-21T05:10:30.604Z,16.23
2023-03-21T05:12:56.988Z,16.75
2023-03-21T05:15:23.420Z,12.95
2023-03-21T05:17:49.970Z,13.50
2023-03-21T05:20:17.401Z,11.70
2023-03-21T05:22:46.356Z,11.70
2023-03-21T05:25:13.228Z,11.70
2023-03-21T05:27:45.347Z,11.60
2023-03-21T05:30:16.341Z,13.02
2023-03-21T05:32:42.760Z,10.70
2023-03-21T05:35:09.797Z,11.52
2023-03-21T05:37:36.216Z,12.77
2023-03-21T05:40:04.638Z,11.10
2023-03-21T05:42:31.030Z,16.85
2023-03-21T05:44:58.183Z,10.32
2023-03-21T05:47:24.678Z,11.48
2023-03-21T05:49:51.082Z,11.80
2023-03-21T05:52:17.518Z,11.35
2023-03-21T05:54:43.977Z,10.43
2023-03-21T05:57:10.966Z,16.67
2023-03-21T05:59:37.526Z,9.95
2023-03-21T06:02:03.967Z,12.57
2023-03-21T06:04:30.774Z,12.77
2023-03-21T06:06:57.328Z,11.75
2023-03-21T06:09:24.156Z,15.25
2023-03-21T06:11:51.883Z,13.98
2023-03-21T06:14:18.806Z,17.23
2023-03-21T06:16:45.403Z,13.40
2023-03-21T06:19:12.301Z,10.05
2023-03-21T06:21:39.097Z,18.98
2023-03-21T06:24:05.652Z,13.82
2023-03-21T06:26:32.103Z,9.48
2023-03-21T06:28:58.699Z,7.78
2023-03-21T06:31:26.553Z,8.18
2023-03-21T06:33:53.475Z,7.57
2023-03-21T06:36:20.044Z,8.25
2023-03-21T06:38:46.984Z,17.25
2023-03-21T06:41:13.651Z,10.25
2023-03-21T06:43:40.230Z,11.15
2023-03-21T06:46:06.708Z,8.32
2023-03-21T06:48:33.325Z,7.53
2023-03-21T06:50:59.842Z,11.52
2023-03-21T06:53:30.024Z,13.40
2023-03-21T06:55:56.446Z,7.65
2023-03-21T06:58:23.092Z,9.93
2023-03-21T07:00:49.736Z,9.95
2023-03-21T07:03:16.897Z,9.95
2023-03-21T07:05:43.530Z,10.05
2023-03-21T07:08:14.181Z,10.57
2023-03-21T07:10:41.685Z,7.05
2023-03-21T07:13:09.248Z,13.75
2023-03-21T07:15:38.409Z,14.35
2023-03-21T07:20:31.950Z,12.15
2023-03-21T07:22:58.682Z,7.57
2023-03-21T07:25:25.071Z,5.72
2023-03-21T07:27:51.649Z,5.97
2023-03-21T07:30:18.223Z,6.72
2023-03-21T07:32:45.642Z,4.80
2023-03-21T07:35:12.999Z,5.80
2023-03-21T07:37:40.284Z,16.58
2023-03-21T07:40:10.195Z,5.40
2023-03-21T07:42:37.122Z,7.30
2023-03-21T07:45:05.084Z,6.82
2023-03-21T07:47:31.767Z,7.85
2023-03-21T07:49:58.720Z,4.93
2023-03-21T07:52:25.328Z,7.78
2023-03-21T07:54:51.727Z,13.50
2023-03-21T07:57:18.307Z,6.43
2023-03-21T07:59:44.796Z,6.32
2023-03-21T08:02:14.534Z,5.55
2023-03-21T08:04:41.298Z,6.18
2023-03-21T08:07:08.015Z,6.43
2023-03-21T08:09:35.349Z,6.00
2023-03-21T08:12:01.835Z,8.15
2023-03-21T08:14:28.260Z,7.55
2023-03-21T08:16:54.699Z,8.38
2023-03-21T08:19:21.822Z,9.60
2023-03-21T08:21:49.651Z,11.95
2023-03-21T08:24:16.212Z,10.75
2023-03-21T08:26:43.688Z,6.88
2023-03-21T08:29:10.182Z,13.38
2023-03-21T08:31:36.636Z,9.35
2023-03-21T08:34:03.309Z,8.07
2023-03-21T08:36:30.558Z,7.30
2023-03-21T08:39:05.137Z,9.88
2023-03-21T08:41:35.990Z,8.32
2023-03-21T08:44:02.819Z,8.27
2023-03-21T08:46:29.634Z,9.02
2023-03-21T08:48:56.144Z,8.20
2023-03-21T08:51:22.516Z,9.00
2023-03-21T08:53:51.399Z,9.18
2023-03-21T08:56:17.969Z,9.40
2023-03-21T08:58:44.743Z,7.75
2023-03-21T09:01:16.019Z,8.95
2023-03-21T09:03:43.308Z,6.85
2023-03-21T09:06:11.304Z,6.35
2023-03-21T09:08:38.191Z,8.02
2023-03-21T09:11:04.742Z,7.20
2023-03-21T09:13:31.216Z,6.65
2023-03-21T09:16:01.396Z,5.60
2023-03-21T09:18:45.387Z,6.88
2023-03-21T09:21:13.491Z,7.45
2023-03-21T09:23:44.898Z,5.07
2023-03-21T09:26:12.564Z,7.15
2023-03-21T09:28:39.823Z,5.05
2023-03-21T09:31:08.368Z,5.85
2023-03-21T09:33:35.456Z,6.80
2023-03-21T09:36:02.123Z,5.22
2023-03-21T09:38:30.622Z,6.28
2023-03-21T09:41:01.854Z,6.10
2023-03-21T09:43:28.421Z,3.20
2023-03-21T09:45:54.925Z,4.93
2023-03-21T09:48:56.754Z,6.88
2023-03-21T09:51:26.224Z,4.18
2023-03-21T09:53:55.907Z,3.47
2023-03-21T09:56:24.400Z,5.30
2023-03-21T09:58:53.235Z,4.13
2023-03-21T10:01:28.566Z,4.07
2023-03-21T10:03:56.328Z,5.05
2023-03-21T10:06:30.585Z,4.05
2023-03-21T10:09:00.197Z,6.70
2023-03-21T10:14:06.324Z,6.72
2023-03-21T10:16:34.609Z,5.33
2023-03-21T10:19:02.900Z,6.75
2023-03-21T10:21:58.683Z,5.97
2023-03-21T10:24:23.639Z,6.35
2023-03-21T10:26:50.677Z,3.55
2023-03-21T10:29:19.021Z,5.43
2023-03-21T10:31:46.862Z,3.50
2023-03-21T10:34:18.942Z,3.88
2023-03-21T10:36:45.849Z,3.78
2023-03-21T10:39:24.782Z,6.35
2023-03-21T10:41:51.206Z,5.70
2023-03-21T10:44:18.653Z,3.25
2023-03-21T10:46:55.537Z,5.88
2023-03-21T10:49:22.404Z,4.70
2023-03-21T10:51:53.942Z,4.68
2023-03-21T10:54:22.068Z,5.22
2023-03-21T10:56:57.088Z,7.03
2023-03-21T10:59:25.081Z,4.43
2023-03-21T11:01:52.893Z,5.93
2023-03-21T11:04:22.228Z,4.57
2023-03-21T11:06:53.413Z,6.30
2023-03-21T11:09:22.107Z,6.90
2023-03-21T11:12:09.688Z,3.95
2023-03-21T11:14:41.122Z,7.38
2023-03-21T11:17:19.269Z,7.13
2023-03-21T11:19:52.916Z,8.35
2023-03-21T11:22:22.088Z,7.57
2023-03-21T11:24:51.616Z,8.35
2023-03-21T11:27:18.250Z,7.70
2023-03-21T11:29:49.354Z,7.40
2023-03-21T11:32:24.678Z,6.40
2023-03-21T11:34:53.663Z,9.77
2023-03-21T11:37:20.830Z,9.27
2023-03-21T11:39:47.421Z,10.48
2023-03-21T11:42:26.258Z,9.68
2023-03-21T11:44:57.964Z,14.38
2023-03-21T11:47:24.424Z,11.85
2023-03-21T11:49:55.690Z,11.13
2023-03-21T11:52:35.667Z,11.98
2023-03-21T11:55:17.242Z,12.77
2023-03-21T11:57:43.780Z,15.05
2023-03-21T12:00:17.725Z,12.48
2023-03-21T12:02:44.129Z,14.23
2023-03-21T12:05:20.029Z,15.18
2023-03-21T12:08:05.101Z,13.10
2023-03-21T12:10:35.936Z,14.35
2023-03-21T12:13:28.835Z,14.20
2023-03-21T12:16:05.751Z,12.77
2023-03-21T12:18:32.152Z,13.05
2023-03-21T12:21:00.597Z,13.20
2023-03-21T12:23:33.976Z,13.13
2023-03-21T12:26:00.627Z,13.15
2023-03-21T12:28:46.191Z,13.05
2023-03-21T12:31:22.011Z,15.32
2023-03-21T12:33:48.805Z,13.57
2023-03-21T12:36:53.623Z,14.05
2023-03-21T12:39:22.848Z,13.60
2023-03-21T12:41:58.279Z,12.10
2023-03-21T12:44:26.060Z,13.90
2023-03-21T12:46:55.841Z,14.73
2023-03-21T12:49:25.240Z,11.25
2023-03-21T12:51:55.250Z,11.70
2023-03-21T12:54:42.790Z,12.48
2023-03-21T12:57:10.037Z,14.25
2023-03-21T12:59:39.237Z,12.25
2023-03-21T13:02:20.358Z,9.77
2023-03-21T13:05:04.920Z,10.50
2023-03-21T13:07:37.236Z,10.65
2023-03-21T13:10:12.128Z,10.05
2023-03-21T13:12:43.557Z,8.40
2023-03-21T13:15:15.331Z,8.85
2023-03-21T13:18:08.938Z,9.30
2023-03-21T13:20:44.085Z,8.52
2023-03-21T13:23:11.905Z,9.45
2023-03-21T13:25:48.741Z,8.10
2023-03-21T13:28:20.018Z,9.88
2023-03-21T13:30:48.793Z,10.23
2023-03-21T13:33:19.351Z,11.05
2023-03-21T13:35:46.100Z,10.15
2023-03-21T13:38:23.208Z,11.48
2023-03-21T13:40:51.018Z,12.43
2023-03-21T13:43:32.634Z,12.13
2023-03-21T13:46:05.971Z,10.50
2023-03-21T13:48:46.515Z,11.15
2023-03-21T13:51:19.556Z,12.90
2023-03-21T13:53:59.372Z,16.25
2023-03-21T13:56:25.965Z,14.05
2023-03-21T13:58:59.448Z,13.68
2023-03-21T14:01:55.101Z,16.92
2023-03-21T14:04:31.991Z,17.85
2023-03-21T14:07:13.740Z,17.77
2023-03-21T14:09:47.693Z,17.50
2023-03-21T14:12:16.485Z,20.17
2023-03-21T14:14:47.640Z,20.60
2023-03-21T14:17:34.470Z,26.63
2023-03-21T14:20:08.472Z,23.80
2023-03-21T14:22:35.688Z,25.48
2023-03-21T14:25:02.880Z,22.45
2023-03-21T14:27:33.738Z,25.88
2023-03-21T14:30:01.010Z,27.65
2023-03-21T14:32:28.859Z,27.33
2023-03-21T14:34:55.904Z,26.60
2023-03-21T14:37:30.098Z,22.83
2023-03-21T14:40:00.306Z,26.63
2023-03-21T14:42:27.564Z,26.55
2023-03-21T14:44:56.558Z,33.25
2023-03-21T14:47:24.846Z,24.92
2023-03-21T14:49:51.497Z,26.83
2023-03-21T14:52:21.722Z,27.98
2023-03-21T14:54:48.507Z,27.17
2023-03-21T14:57:15.953Z,27.00
2023-03-21T14:59:42.700Z,25.02
2023-03-21T15:02:17.075Z,26.33
2023-03-21T15:04:45.491Z,25.60
2023-03-21T15:07:24.258Z,34.22
2023-03-21T15:09:55.534Z,32.90
2023-03-21T15:12:22.136Z,27.17
2023-03-21T15:14:48.708Z,28.95
2023-03-21T15:17:15.468Z,27.08
2023-03-21T15:19:43.649Z,27.75
2023-03-21T15:22:23.066Z,28.85
2023-03-21T15:27:17.650Z,26.15
2023-03-21T15:29:44.883Z,24.50
2023-03-21T15:32:16.580Z,21.02
2023-03-21T15:34:43.776Z,27.63
2023-03-21T15:37:17.160Z,29.35
2023-03-21T15:39:43.982Z,28.63
2023-03-21T15:42:24.545Z,33.92
2023-03-21T15:44:53.540Z,32.17
2023-03-21T15:47:38.712Z,30.17
2023-03-21T15:50:09.318Z,23.08
2023-03-21T15:52:36.068Z,25.02
2023-03-21T15:55:03.034Z,26.38
2023-03-21T15:57:32.831Z,27.50
2023-03-21T16:00:10.941Z,22.85
2023-03-21T16:02:39.271Z,22.85
2023-03-21T16:05:15.105Z,28.00
2023-03-21T16:07:45.652Z,25.58
2023-03-21T16:10:23.336Z,23.15
2023-03-21T16:12:49.760Z,27.40
2023-03-21T16:15:16.612Z,23.88
2023-03-21T16:17:48.446Z,26.60
2023-03-21T16:20:20.485Z,21.08
2023-03-21T16:22:47.809Z,25.48
2023-03-21T16:25:14.397Z,21.92
2023-03-21T16:27:41.142Z,22.02
2023-03-21T16:30:09.367Z,21.15
2023-03-21T16:32:36.626Z,17.88
2023-03-21T16:35:04.190Z,23.33
2023-03-21T16:37:30.865Z,22.15
2023-03-21T16:39:57.407Z,18.92
2023-03-21T16:42:23.873Z,19.80
2023-03-21T16:44:50.573Z,19.50
2023-03-21T16:47:18.583Z,18.10
2023-03-21T16:49:45.721Z,18.77
2023-03-21T16:52:12.921Z,16.40
2023-03-21T16:54:42.486Z,18.02
2023-03-21T16:57:15.722Z,16.70
2023-03-21T16:59:42.882Z,13.95
2023-03-21T17:02:12.364Z,13.90
2023-03-21T17:07:06.835Z,14.05
2023-03-21T17:09:33.270Z,14.38
2023-03-21T17:12:00.012Z,13.68
2023-03-21T17:14:26.439Z,14.45
2023-03-21T17:16:52.911Z,14.68
2023-03-21T17:19:20.838Z,12.10
2023-03-21T17:21:47.385Z,15.55
2023-03-21T17:24:13.961Z,13.77
2023-03-21T17:26:40.504Z,12.55
2023-03-21T17:29:07.466Z,12.00
2023-03-21T17:31:35.653Z,12.13
2023-03-21T17:34:03.585Z,12.02
2023-03-21T17:36:35.625Z,12.20
2023-03-21T17:39:03.102Z,11.48
2023-03-21T17:41:29.590Z,11.55
2023-03-21T17:43:56.909Z,13.18
2023-03-21T17:46:27.640Z,13.35
2023-03-21T17:48:54.054Z,11.88
2023-03-21T17:51:23.051Z,12.93
2023-03-21T17:53:50.946Z,11.70
2023-03-21T17:56:22.274Z,13.70
2023-03-21T17:58:49.051Z,11.70
2023-03-21T18:01:15.534Z,11.75
2023-03-21T18:03:41.975Z,12.07
2023-03-21T18:06:12.769Z,11.32
2023-03-21T18:08:39.129Z,9.85
2023-03-21T18:11:07.084Z,10.25
2023-03-21T18:13:33.586Z,9.77
2023-03-21T18:16:00.278Z,9.35
2023-03-21T18:18:27.336Z,8.77
2023-03-21T18:20:54.824Z,9.00
2023-03-21T18:23:23.990Z,8.40
2023-03-21T18:25:52.460Z,10.73
2023-03-21T18:28:21.252Z,8.77
2023-03-21T18:33:36.004Z,8.95
2023-03-21T18:36:06.994Z,9.18
2023-03-21T18:38:34.270Z,8.38
2023-03-21T18:41:00.856Z,7.80
2023-03-21T18:44:00.748Z,9.30
2023-03-21T18:46:13.891Z,9.23
2023-03-21T18:48:40.381Z,9.43
2023-03-21T18:51:07.174Z,8.25
2023-03-21T18:53:33.600Z,9.73
2023-03-21T18:56:00.091Z,10.00
2023-03-21T18:58:28.169Z,9.40
2023-03-21T19:00:56.412Z,9.95
2023-03-21T19:03:35.219Z,10.15
2023-03-21T19:06:04.071Z,7.82
2023-03-21T19:08:31.233Z,7.10
2023-03-21T19:11:00.144Z,8.88
2023-03-21T19:13:28.114Z,7.30
2023-03-21T19:15:54.475Z,8.38
2023-03-21T19:21:08.147Z,6.60
2023-03-21T19:24:03.842Z,8.60
2023-03-21T19:26:22.195Z,7.88
2023-03-21T19:28:48.596Z,8.85
2023-03-21T19:31:15.226Z,7.60
2023-03-21T19:33:41.963Z,7.68
2023-03-21T19:36:17.863Z,10.23
2023-03-21T19:38:48.278Z,9.38
2023-03-21T19:41:14.943Z,9.40
2023-03-21T19:43:52.799Z,8.05
2023-03-21T19:46:24.593Z,9.32
2023-03-21T19:48:51.795Z,9.80
2023-03-21T19:51:28.307Z,8.57
2023-03-21T19:53:56.093Z,8.43
2023-03-21T19:56:26.453Z,9.68
2023-03-21T19:58:53.778Z,8.75
2023-03-21T20:01:20.857Z,8.07
2023-03-21T20:03:47.517Z,8.80
2023-03-21T20:06:14.640Z,8.57
2023-03-21T20:11:27.838Z,7.80
2023-03-21T20:13:54.384Z,7.35
2023-03-21T20:16:21.742Z,9.77
2023-03-21T20:18:48.233Z,8.98
2023-03-21T20:21:18.038Z,9.93
2023-03-21T20:23:50.806Z,9.05
2023-03-21T20:28:56.564Z,8.98
2023-03-21T20:31:32.229Z,10.05
2023-03-21T20:33:58.740Z,9.45
2023-03-21T20:36:43.004Z,10.80
2023-03-21T20:39:09.989Z,8.70
2023-03-21T20:41:36.531Z,10.30
2023-03-21T20:46:49.926Z,10.27
2023-03-21T20:49:16.699Z,10.75
2023-03-21T20:54:29.858Z,8.90
2023-03-21T20:56:57.169Z,9.93
2023-03-21T20:59:27.535Z,9.70
2023-03-21T21:01:56.107Z,11.60
2023-03-21T21:04:34.324Z,10.35
2023-03-21T21:07:12.569Z,9.93
2023-03-21T21:09:40.056Z,9.85
2023-03-21T21:12:09.297Z,10.70
2023-03-21T21:14:36.280Z,11.82
2023-03-21T21:17:22.506Z,9.80
2023-03-21T21:19:50.048Z,9.27
2023-03-21T21:22:16.993Z,9.63
2023-03-21T21:24:43.950Z,9.45
2023-03-21T21:27:10.404Z,10.20
2023-03-21T21:29:37.208Z,10.57
2023-03-21T21:32:05.273Z,10.35
2023-03-21T21:34:32.031Z,11.82
2023-03-21T21:36:58.518Z,10.93
2023-03-21T21:39:26.595Z,12.13
2023-03-21T21:41:53.509Z,13.38
2023-03-21T21:44:19.941Z,12.10
2023-03-21T21:46:46.494Z,12.27
2023-03-21T21:49:13.013Z,12.00
2023-03-21T21:51:41.300Z,13.77
2023-03-21T21:54:07.724Z,13.23
2023-03-21T21:56:35.466Z,12.63
2023-03-21T21:59:02.744Z,13.77
2023-03-21T22:01:30.555Z,12.75
2023-03-21T22:04:08.089Z,10.55
2023-03-21T22:06:34.844Z,12.65
2023-03-21T22:09:01.364Z,11.90
2023-03-21T22:11:28.060Z,13.02
2023-03-21T22:13:54.490Z,12.73
2023-03-21T22:16:21.076Z,14.85
2023-03-21T22:18:47.618Z,13.98
2023-03-21T22:21:14.036Z,14.18
2023-03-21T22:23:43.477Z,12.85
2023-03-21T22:28:39.735Z,13.60
2023-03-21T22:31:10.292Z,14.52
2023-03-21T22:33:36.740Z,13.10
2023-03-21T22:36:03.604Z,12.63
2023-03-21T22:38:29.988Z,13.65
2023-03-21T22:41:00.622Z,12.75
2023-03-21T22:43:27.347Z,14.93
2023-03-21T22:45:53.757Z,13.23
2023-03-21T22:48:20.750Z,12.07
2023-03-21T22:50:47.180Z,13.32
2023-03-21T22:53:13.752Z,13.40
2023-03-21T22:55:40.485Z,12.07
2023-03-21T22:58:06.931Z,15.35
2023-03-21T23:00:33.605Z,15.27
2023-03-21T23:03:00.164Z,12.18
2023-03-21T23:05:26.766Z,13.90
2023-03-21T23:07:53.648Z,15.82
2023-03-21T23:10:20.435Z,14.40
2023-03-21T23:12:46.932Z,13.38
2023-03-21T23:15:13.361Z,14.48
2023-03-21T23:17:39.859Z,16.15
2023-03-21T23:20:08.193Z,13.80
2023-03-21T23:22:35.524Z,14.98
2023-03-21T23:25:02.123Z,18.02
2023-03-21T23:27:28.709Z,15.95
2023-03-21T23:29:56.712Z,16.50
2023-03-21T23:32:23.299Z,14.93
2023-03-21T23:34:49.707Z,17.15
2023-03-21T23:37:16.270Z,16.25
2023-03-21T23:39:45.224Z,15.85
2023-03-21T23:42:11.689Z,17.83
2023-03-21T23:44:38.136Z,16.98
2023-03-21T23:47:04.568Z,18.83
2023-03-21T23:49:33.768Z,15.73
2023-03-21T23:52:00.274Z,18.27
2023-03-21T23:54:26.879Z,17.40
2023-03-21T23:56:53.318Z,20.10
2023-03-21T23:59:19.808Z,16.75
